Latest tweets that mention www.rmkrmk.com

マキア編集部

RMKが提案! “自分の肌悩みに合った下地”を使って夏でも崩れにくい理想の- 肌に。潤いや毛穴カバー、皮脂ケアなど、理想の肌に近づくため- の下地を選び、ファンデーション前に仕込むことで密着度もアッ- プ。… https://t.co/mckUbyWBtRhttps://twitter.com/maquia_magazine

8 hours ago

CZBA WEATHER

LWIS CZBA 312145Z AUTO 33008G19KT 260V030 9SM BKN065 16/00 A3019 RMK ADVISORY ONLY=https://twitter.com/wxczba

just now

Khalidinho⚜️

@07_RMK امين يارب وياكككhttps://twitter.com/kalld__10

just now

Latest tweets that mention “RMK”

No results